sensor_id;sensor_type;location;lat;lon;timestamp;P1;durP1;ratioP1;P2;durP2;ratioP2
71629;SDS011;59479;51.902;8.212;2022-07-22T00:00:38;6.80;;;3.70;;
71629;SDS011;59479;51.902;8.212;2022-07-22T00:03:03;5.73;;;3.20;;
71629;SDS011;59479;51.902;8.212;2022-07-22T00:05:28;6.63;;;3.03;;
71629;SDS011;59479;51.902;8.212;2022-07-22T00:07:54;5.65;;;3.03;;
71629;SDS011;59479;51.902;8.212;2022-07-22T00:10:19;5.20;;;2.80;;
71629;SDS011;59479;51.902;8.212;2022-07-22T00:12:45;5.70;;;2.27;;
71629;SDS011;59479;51.902;8.212;2022-07-22T00:15:10;5.00;;;2.27;;
71629;SDS011;59479;51.902;8.212;2022-07-22T00:17:36;4.35;;;1.92;;
71629;SDS011;59479;51.902;8.212;2022-07-22T00:20:02;5.43;;;1.90;;
71629;SDS011;59479;51.902;8.212;2022-07-22T00:22:28;5.13;;;2.20;;
71629;SDS011;59479;51.902;8.212;2022-07-22T00:24:53;4.10;;;1.80;;
71629;SDS011;59479;51.902;8.212;2022-07-22T00:27:19;4.40;;;2.17;;
71629;SDS011;59479;51.902;8.212;2022-07-22T00:29:44;4.90;;;2.17;;
71629;SDS011;59479;51.902;8.212;2022-07-22T00:32:09;4.00;;;2.20;;
71629;SDS011;59479;51.902;8.212;2022-07-22T00:34:35;4.27;;;2.00;;
71629;SDS011;59479;51.902;8.212;2022-07-22T00:37:00;4.27;;;2.10;;
71629;SDS011;59479;51.902;8.212;2022-07-22T00:39:25;4.28;;;2.00;;
71629;SDS011;59479;51.902;8.212;2022-07-22T00:41:51;4.77;;;2.17;;
71629;SDS011;59479;51.902;8.212;2022-07-22T00:44:16;4.97;;;2.00;;
71629;SDS011;59479;51.902;8.212;2022-07-22T00:46:41;5.00;;;2.57;;
71629;SDS011;59479;51.902;8.212;2022-07-22T00:49:08;5.47;;;2.70;;
71629;SDS011;59479;51.902;8.212;2022-07-22T00:51:34;4.30;;;2.47;;
71629;SDS011;59479;51.902;8.212;2022-07-22T00:54:01;5.38;;;2.63;;
71629;SDS011;59479;51.902;8.212;2022-07-22T00:56:27;5.75;;;3.03;;
71629;SDS011;59479;51.902;8.212;2022-07-22T00:58:55;5.20;;;2.85;;
71629;SDS011;59479;51.902;8.212;2022-07-22T01:01:21;5.93;;;2.55;;
71629;SDS011;59479;51.902;8.212;2022-07-22T01:03:47;5.87;;;2.53;;
71629;SDS011;59479;51.902;8.212;2022-07-22T01:06:12;5.68;;;2.63;;
71629;SDS011;59479;51.902;8.212;2022-07-22T01:08:38;5.57;;;2.57;;
71629;SDS011;59479;51.902;8.212;2022-07-22T01:11:08;4.20;;;2.45;;
71629;SDS011;59479;51.902;8.212;2022-07-22T01:13:33;5.05;;;2.47;;
71629;SDS011;59479;51.902;8.212;2022-07-22T01:15:59;4.60;;;2.50;;
71629;SDS011;59479;51.902;8.212;2022-07-22T01:18:25;4.90;;;2.47;;
71629;SDS011;59479;51.902;8.212;2022-07-22T01:20:50;4.87;;;2.40;;
71629;SDS011;59479;51.902;8.212;2022-07-22T01:23:15;4.20;;;2.20;;
71629;SDS011;59479;51.902;8.212;2022-07-22T01:25:41;5.68;;;2.50;;
71629;SDS011;59479;51.902;8.212;2022-07-22T01:28:06;4.03;;;2.00;;
71629;SDS011;59479;51.902;8.212;2022-07-22T01:30:31;4.87;;;2.30;;
71629;SDS011;59479;51.902;8.212;2022-07-22T01:32:56;3.70;;;2.10;;
71629;SDS011;59479;51.902;8.212;2022-07-22T01:35:22;4.80;;;2.33;;
71629;SDS011;59479;51.902;8.212;2022-07-22T01:37:47;4.53;;;2.20;;
71629;SDS011;59479;51.902;8.212;2022-07-22T01:40:13;4.63;;;2.77;;
71629;SDS011;59479;51.902;8.212;2022-07-22T01:42:38;4.87;;;2.90;;
71629;SDS011;59479;51.902;8.212;2022-07-22T01:45:03;4.75;;;2.70;;
71629;SDS011;59479;51.902;8.212;2022-07-22T01:47:29;4.38;;;2.53;;
71629;SDS011;59479;51.902;8.212;2022-07-22T01:49:54;4.40;;;2.37;;
71629;SDS011;59479;51.902;8.212;2022-07-22T01:52:19;4.97;;;2.30;;
71629;SDS011;59479;51.902;8.212;2022-07-22T01:54:45;4.67;;;2.30;;
71629;SDS011;59479;51.902;8.212;2022-07-22T01:57:10;5.00;;;2.23;;
71629;SDS011;59479;51.902;8.212;2022-07-22T01:59:36;4.20;;;2.30;;
71629;SDS011;59479;51.902;8.212;2022-07-22T02:02:01;4.97;;;2.13;;
71629;SDS011;59479;51.902;8.212;2022-07-22T02:04:26;5.75;;;2.00;;
71629;SDS011;59479;51.902;8.212;2022-07-22T02:06:52;5.30;;;2.00;;
71629;SDS011;59479;51.902;8.212;2022-07-22T02:09:17;3.78;;;2.08;;
71629;SDS011;59479;51.902;8.212;2022-07-22T02:11:43;5.32;;;1.90;;
71629;SDS011;59479;51.902;8.212;2022-07-22T02:14:08;7.80;;;2.03;;
71629;SDS011;59479;51.902;8.212;2022-07-22T02:16:33;5.37;;;2.20;;
71629;SDS011;59479;51.902;8.212;2022-07-22T02:18:59;4.03;;;2.23;;
71629;SDS011;59479;51.902;8.212;2022-07-22T02:21:24;6.77;;;2.20;;
71629;SDS011;59479;51.902;8.212;2022-07-22T02:23:49;4.83;;;2.20;;
71629;SDS011;59479;51.902;8.212;2022-07-22T02:26:15;4.90;;;2.70;;
71629;SDS011;59479;51.902;8.212;2022-07-22T02:28:41;4.40;;;2.13;;
71629;SDS011;59479;51.902;8.212;2022-07-22T02:31:06;5.17;;;2.23;;
71629;SDS011;59479;51.902;8.212;2022-07-22T02:33:31;4.53;;;2.67;;
71629;SDS011;59479;51.902;8.212;2022-07-22T02:35:57;5.13;;;2.33;;
71629;SDS011;59479;51.902;8.212;2022-07-22T02:38:22;5.07;;;2.45;;
71629;SDS011;59479;51.902;8.212;2022-07-22T02:40:48;5.53;;;2.17;;
71629;SDS011;59479;51.902;8.212;2022-07-22T02:43:13;5.23;;;2.10;;
71629;SDS011;59479;51.902;8.212;2022-07-22T02:45:38;5.20;;;1.87;;
71629;SDS011;59479;51.902;8.212;2022-07-22T02:48:04;4.50;;;2.10;;
71629;SDS011;59479;51.902;8.212;2022-07-22T02:50:30;4.10;;;2.08;;
71629;SDS011;59479;51.902;8.212;2022-07-22T02:52:57;4.93;;;1.88;;
71629;SDS011;59479;51.902;8.212;2022-07-22T02:55:23;4.38;;;2.15;;
71629;SDS011;59479;51.902;8.212;2022-07-22T02:57:48;4.00;;;1.77;;
71629;SDS011;59479;51.902;8.212;2022-07-22T03:00:14;3.57;;;1.93;;
71629;SDS011;59479;51.902;8.212;2022-07-22T03:02:39;4.97;;;1.90;;
71629;SDS011;59479;51.902;8.212;2022-07-22T03:05:05;4.30;;;2.00;;
71629;SDS011;59479;51.902;8.212;2022-07-22T03:07:31;4.15;;;2.13;;
71629;SDS011;59479;51.902;8.212;2022-07-22T03:09:57;5.20;;;1.60;;
71629;SDS011;59479;51.902;8.212;2022-07-22T03:12:23;4.53;;;1.88;;
71629;SDS011;59479;51.902;8.212;2022-07-22T03:14:48;3.53;;;1.77;;
71629;SDS011;59479;51.902;8.212;2022-07-22T03:17:14;4.78;;;1.85;;
71629;SDS011;59479;51.902;8.212;2022-07-22T03:19:39;5.37;;;1.90;;
71629;SDS011;59479;51.902;8.212;2022-07-22T03:22:05;3.90;;;2.20;;
71629;SDS011;59479;51.902;8.212;2022-07-22T03:24:30;4.03;;;2.10;;
71629;SDS011;59479;51.902;8.212;2022-07-22T03:26:55;5.57;;;1.80;;
71629;SDS011;59479;51.902;8.212;2022-07-22T03:29:21;4.18;;;1.90;;
71629;SDS011;59479;51.902;8.212;2022-07-22T03:31:46;4.40;;;2.22;;
71629;SDS011;59479;51.902;8.212;2022-07-22T03:34:11;5.17;;;1.77;;
71629;SDS011;59479;51.902;8.212;2022-07-22T03:36:36;5.43;;;2.80;;
71629;SDS011;59479;51.902;8.212;2022-07-22T03:39:02;5.17;;;2.37;;
71629;SDS011;59479;51.902;8.212;2022-07-22T03:41:28;5.95;;;2.75;;
71629;SDS011;59479;51.902;8.212;2022-07-22T03:43:53;8.35;;;2.30;;
71629;SDS011;59479;51.902;8.212;2022-07-22T03:46:18;6.20;;;2.03;;
71629;SDS011;59479;51.902;8.212;2022-07-22T03:48:44;7.00;;;2.10;;
71629;SDS011;59479;51.902;8.212;2022-07-22T03:51:09;5.63;;;2.37;;
71629;SDS011;59479;51.902;8.212;2022-07-22T03:53:34;5.33;;;2.20;;
71629;SDS011;59479;51.902;8.212;2022-07-22T03:56:00;6.47;;;2.00;;
71629;SDS011;59479;51.902;8.212;2022-07-22T03:58:26;5.63;;;2.22;;
71629;SDS011;59479;51.902;8.212;2022-07-22T04:00:52;5.50;;;2.10;;
71629;SDS011;59479;51.902;8.212;2022-07-22T04:03:18;4.40;;;2.47;;
71629;SDS011;59479;51.902;8.212;2022-07-22T04:05:44;4.10;;;2.27;;
71629;SDS011;59479;51.902;8.212;2022-07-22T04:08:09;6.30;;;2.35;;
71629;SDS011;59479;51.902;8.212;2022-07-22T04:10:35;4.87;;;2.60;;
71629;SDS011;59479;51.902;8.212;2022-07-22T04:13:00;4.60;;;2.33;;
71629;SDS011;59479;51.902;8.212;2022-07-22T04:15:26;8.43;;;2.90;;
71629;SDS011;59479;51.902;8.212;2022-07-22T04:17:51;6.07;;;2.43;;
71629;SDS011;59479;51.902;8.212;2022-07-22T04:20:17;5.00;;;2.63;;
71629;SDS011;59479;51.902;8.212;2022-07-22T04:22:42;6.28;;;2.45;;
71629;SDS011;59479;51.902;8.212;2022-07-22T04:25:08;10.83;;;2.90;;
71629;SDS011;59479;51.902;8.212;2022-07-22T04:27:33;5.23;;;2.50;;
71629;SDS011;59479;51.902;8.212;2022-07-22T04:29:59;6.93;;;2.60;;
71629;SDS011;59479;51.902;8.212;2022-07-22T04:32:24;9.63;;;2.83;;
71629;SDS011;59479;51.902;8.212;2022-07-22T04:34:49;6.47;;;3.00;;
71629;SDS011;59479;51.902;8.212;2022-07-22T04:37:15;5.90;;;2.70;;
71629;SDS011;59479;51.902;8.212;2022-07-22T04:39:40;7.73;;;2.70;;
71629;SDS011;59479;51.902;8.212;2022-07-22T04:42:05;7.03;;;2.60;;
71629;SDS011;59479;51.902;8.212;2022-07-22T04:44:31;7.70;;;2.90;;
71629;SDS011;59479;51.902;8.212;2022-07-22T04:46:56;8.23;;;2.53;;
71629;SDS011;59479;51.902;8.212;2022-07-22T04:49:21;7.07;;;3.13;;
71629;SDS011;59479;51.902;8.212;2022-07-22T04:51:47;5.22;;;2.33;;
71629;SDS011;59479;51.902;8.212;2022-07-22T04:54:12;7.10;;;2.77;;
71629;SDS011;59479;51.902;8.212;2022-07-22T04:56:38;7.50;;;3.10;;
71629;SDS011;59479;51.902;8.212;2022-07-22T04:59:03;7.37;;;3.00;;
71629;SDS011;59479;51.902;8.212;2022-07-22T05:01:28;7.83;;;2.90;;
71629;SDS011;59479;51.902;8.212;2022-07-22T05:03:54;8.63;;;2.63;;
71629;SDS011;59479;51.902;8.212;2022-07-22T05:09:02;5.20;;;2.70;;
71629;SDS011;59479;51.902;8.212;2022-07-22T05:14:11;7.65;;;2.97;;
71629;SDS011;59479;51.902;8.212;2022-07-22T05:19:19;6.35;;;2.75;;
71629;SDS011;59479;51.902;8.212;2022-07-22T05:21:44;8.23;;;3.37;;
71629;SDS011;59479;51.902;8.212;2022-07-22T05:24:10;8.07;;;3.17;;
71629;SDS011;59479;51.902;8.212;2022-07-22T05:26:35;5.87;;;3.30;;
71629;SDS011;59479;51.902;8.212;2022-07-22T05:29:01;6.40;;;3.10;;
71629;SDS011;59479;51.902;8.212;2022-07-22T05:31:26;9.10;;;3.13;;
71629;SDS011;59479;51.902;8.212;2022-07-22T05:33:52;6.97;;;3.50;;
71629;SDS011;59479;51.902;8.212;2022-07-22T05:36:17;5.32;;;3.00;;
71629;SDS011;59479;51.902;8.212;2022-07-22T05:38:43;6.15;;;2.72;;
71629;SDS011;59479;51.902;8.212;2022-07-22T05:41:08;8.13;;;3.17;;
71629;SDS011;59479;51.902;8.212;2022-07-22T05:43:33;6.47;;;3.07;;
71629;SDS011;59479;51.902;8.212;2022-07-22T05:45:59;8.37;;;3.30;;
71629;SDS011;59479;51.902;8.212;2022-07-22T05:48:24;6.30;;;3.00;;
71629;SDS011;59479;51.902;8.212;2022-07-22T05:50:49;5.53;;;3.05;;
71629;SDS011;59479;51.902;8.212;2022-07-22T05:53:15;7.15;;;2.90;;
71629;SDS011;59479;51.902;8.212;2022-07-22T05:55:41;8.77;;;2.80;;
71629;SDS011;59479;51.902;8.212;2022-07-22T05:58:06;10.52;;;2.65;;
71629;SDS011;59479;51.902;8.212;2022-07-22T06:00:31;6.75;;;2.42;;
71629;SDS011;59479;51.902;8.212;2022-07-22T06:02:57;5.83;;;2.47;;
71629;SDS011;59479;51.902;8.212;2022-07-22T06:05:22;6.33;;;2.17;;
71629;SDS011;59479;51.902;8.212;2022-07-22T06:07:47;7.50;;;2.33;;
71629;SDS011;59479;51.902;8.212;2022-07-22T06:10:13;8.20;;;2.53;;
71629;SDS011;59479;51.902;8.212;2022-07-22T06:12:39;8.68;;;2.78;;
71629;SDS011;59479;51.902;8.212;2022-07-22T06:15:04;7.17;;;2.20;;
71629;SDS011;59479;51.902;8.212;2022-07-22T06:17:30;7.80;;;2.72;;
71629;SDS011;59479;51.902;8.212;2022-07-22T06:19:55;11.20;;;2.87;;
71629;SDS011;59479;51.902;8.212;2022-07-22T06:22:21;7.67;;;3.00;;
71629;SDS011;59479;51.902;8.212;2022-07-22T06:24:46;7.60;;;2.73;;
71629;SDS011;59479;51.902;8.212;2022-07-22T06:27:11;6.50;;;2.73;;
71629;SDS011;59479;51.902;8.212;2022-07-22T06:29:37;8.83;;;2.90;;
71629;SDS011;59479;51.902;8.212;2022-07-22T06:32:02;7.15;;;2.60;;
71629;SDS011;59479;51.902;8.212;2022-07-22T06:34:28;7.28;;;2.72;;
71629;SDS011;59479;51.902;8.212;2022-07-22T06:36:54;7.47;;;2.67;;
71629;SDS011;59479;51.902;8.212;2022-07-22T06:39:20;6.80;;;2.43;;
71629;SDS011;59479;51.902;8.212;2022-07-22T06:41:45;8.53;;;3.10;;
71629;SDS011;59479;51.902;8.212;2022-07-22T06:44:10;8.70;;;3.23;;
71629;SDS011;59479;51.902;8.212;2022-07-22T06:46:35;9.23;;;3.20;;
71629;SDS011;59479;51.902;8.212;2022-07-22T06:49:01;9.65;;;3.17;;
71629;SDS011;59479;51.902;8.212;2022-07-22T06:51:26;10.32;;;2.88;;
71629;SDS011;59479;51.902;8.212;2022-07-22T06:53:52;7.20;;;3.10;;
71629;SDS011;59479;51.902;8.212;2022-07-22T06:56:24;7.13;;;2.95;;
71629;SDS011;59479;51.902;8.212;2022-07-22T06:58:49;10.70;;;3.20;;
71629;SDS011;59479;51.902;8.212;2022-07-22T07:01:15;9.35;;;3.35;;
71629;SDS011;59479;51.902;8.212;2022-07-22T07:03:45;9.50;;;3.40;;
71629;SDS011;59479;51.902;8.212;2022-07-22T07:06:20;8.88;;;2.78;;
71629;SDS011;59479;51.902;8.212;2022-07-22T07:09:04;8.13;;;3.00;;
71629;SDS011;59479;51.902;8.212;2022-07-22T07:11:32;9.00;;;3.50;;
71629;SDS011;59479;51.902;8.212;2022-07-22T07:14:05;9.00;;;3.60;;
71629;SDS011;59479;51.902;8.212;2022-07-22T07:16:30;11.70;;;3.23;;
71629;SDS011;59479;51.902;8.212;2022-07-22T07:18:56;8.90;;;3.60;;
71629;SDS011;59479;51.902;8.212;2022-07-22T07:21:21;9.73;;;3.97;;
71629;SDS011;59479;51.902;8.212;2022-07-22T07:23:47;9.85;;;3.75;;
71629;SDS011;59479;51.902;8.212;2022-07-22T07:26:18;9.47;;;3.70;;
71629;SDS011;59479;51.902;8.212;2022-07-22T07:31:55;9.77;;;4.30;;
71629;SDS011;59479;51.902;8.212;2022-07-22T07:34:20;11.97;;;4.23;;
71629;SDS011;59479;51.902;8.212;2022-07-22T07:36:46;10.17;;;4.53;;
71629;SDS011;59479;51.902;8.212;2022-07-22T07:39:11;10.23;;;4.40;;
71629;SDS011;59479;51.902;8.212;2022-07-22T07:41:37;10.18;;;4.53;;
71629;SDS011;59479;51.902;8.212;2022-07-22T07:44:02;12.53;;;4.47;;
71629;SDS011;59479;51.902;8.212;2022-07-22T07:46:28;9.80;;;5.03;;
71629;SDS011;59479;51.902;8.212;2022-07-22T07:48:56;8.98;;;4.85;;
71629;SDS011;59479;51.902;8.212;2022-07-22T07:51:25;9.15;;;4.30;;
71629;SDS011;59479;51.902;8.212;2022-07-22T07:56:40;10.20;;;4.22;;
71629;SDS011;59479;51.902;8.212;2022-07-22T07:59:35;8.60;;;4.78;;
71629;SDS011;59479;51.902;8.212;2022-07-22T08:02:09;9.85;;;4.47;;
71629;SDS011;59479;51.902;8.212;2022-07-22T08:04:44;9.27;;;4.78;;
71629;SDS011;59479;51.902;8.212;2022-07-22T08:07:09;9.33;;;4.27;;
71629;SDS011;59479;51.902;8.212;2022-07-22T08:09:40;9.37;;;4.27;;
71629;SDS011;59479;51.902;8.212;2022-07-22T08:12:40;10.68;;;4.40;;
71629;SDS011;59479;51.902;8.212;2022-07-22T08:15:14;9.95;;;4.07;;
71629;SDS011;59479;51.902;8.212;2022-07-22T08:17:40;9.02;;;3.83;;
71629;SDS011;59479;51.902;8.212;2022-07-22T08:20:06;9.00;;;3.90;;
71629;SDS011;59479;51.902;8.212;2022-07-22T08:22:32;8.32;;;4.03;;
71629;SDS011;59479;51.902;8.212;2022-07-22T08:24:58;7.97;;;3.72;;
71629;SDS011;59479;51.902;8.212;2022-07-22T08:27:24;7.82;;;3.15;;
71629;SDS011;59479;51.902;8.212;2022-07-22T08:29:49;9.77;;;3.30;;
71629;SDS011;59479;51.902;8.212;2022-07-22T08:32:17;7.07;;;2.83;;
71629;SDS011;59479;51.902;8.212;2022-07-22T08:34:42;9.55;;;3.30;;
71629;SDS011;59479;51.902;8.212;2022-07-22T08:37:08;6.73;;;3.00;;
71629;SDS011;59479;51.902;8.212;2022-07-22T08:39:33;6.50;;;2.87;;
71629;SDS011;59479;51.902;8.212;2022-07-22T08:42:29;7.20;;;2.50;;
71629;SDS011;59479;51.902;8.212;2022-07-22T08:45:01;6.68;;;2.78;;
71629;SDS011;59479;51.902;8.212;2022-07-22T08:47:53;6.20;;;2.47;;
71629;SDS011;59479;51.902;8.212;2022-07-22T08:50:19;6.88;;;2.65;;
71629;SDS011;59479;51.902;8.212;2022-07-22T08:52:44;6.15;;;2.70;;
71629;SDS011;59479;51.902;8.212;2022-07-22T08:55:19;6.80;;;2.80;;
71629;SDS011;59479;51.902;8.212;2022-07-22T08:57:53;5.15;;;2.60;;
71629;SDS011;59479;51.902;8.212;2022-07-22T09:00:35;7.55;;;2.72;;
71629;SDS011;59479;51.902;8.212;2022-07-22T09:03:17;5.45;;;2.30;;
71629;SDS011;59479;51.902;8.212;2022-07-22T09:05:55;8.23;;;2.53;;
71629;SDS011;59479;51.902;8.212;2022-07-22T09:08:23;10.20;;;3.00;;
71629;SDS011;59479;51.902;8.212;2022-07-22T09:10:54;7.13;;;2.30;;
71629;SDS011;59479;51.902;8.212;2022-07-22T09:13:20;7.53;;;2.30;;
71629;SDS011;59479;51.902;8.212;2022-07-22T09:19:16;4.63;;;2.20;;
71629;SDS011;59479;51.902;8.212;2022-07-22T09:21:42;5.73;;;2.23;;
71629;SDS011;59479;51.902;8.212;2022-07-22T09:24:25;6.82;;;2.70;;
71629;SDS011;59479;51.902;8.212;2022-07-22T09:26:57;6.30;;;2.22;;
71629;SDS011;59479;51.902;8.212;2022-07-22T09:29:32;6.37;;;2.47;;
71629;SDS011;59479;51.902;8.212;2022-07-22T09:32:08;5.70;;;2.20;;
71629;SDS011;59479;51.902;8.212;2022-07-22T09:34:47;9.60;;;2.75;;
71629;SDS011;59479;51.902;8.212;2022-07-22T09:37:51;4.63;;;1.83;;
71629;SDS011;59479;51.902;8.212;2022-07-22T09:40:40;5.32;;;2.25;;
71629;SDS011;59479;51.902;8.212;2022-07-22T09:43:18;5.28;;;2.08;;
71629;SDS011;59479;51.902;8.212;2022-07-22T09:46:01;6.18;;;1.80;;
71629;SDS011;59479;51.902;8.212;2022-07-22T09:48:42;4.43;;;1.90;;
71629;SDS011;59479;51.902;8.212;2022-07-22T09:51:10;4.23;;;1.93;;
71629;SDS011;59479;51.902;8.212;2022-07-22T09:53:44;4.78;;;1.77;;
71629;SDS011;59479;51.902;8.212;2022-07-22T09:56:22;6.15;;;2.20;;
71629;SDS011;59479;51.902;8.212;2022-07-22T09:59:11;4.88;;;1.75;;
71629;SDS011;59479;51.902;8.212;2022-07-22T10:05:00;4.40;;;1.70;;
71629;SDS011;59479;51.902;8.212;2022-07-22T10:08:05;4.95;;;1.70;;
71629;SDS011;59479;51.902;8.212;2022-07-22T10:10:37;5.18;;;1.70;;
71629;SDS011;59479;51.902;8.212;2022-07-22T10:13:12;6.28;;;1.50;;
71629;SDS011;59479;51.902;8.212;2022-07-22T10:15:49;4.50;;;1.83;;
71629;SDS011;59479;51.902;8.212;2022-07-22T10:18:28;4.05;;;1.50;;
71629;SDS011;59479;51.902;8.212;2022-07-22T10:21:07;5.63;;;1.83;;
71629;SDS011;59479;51.902;8.212;2022-07-22T10:26:48;4.22;;;1.70;;
71629;SDS011;59479;51.902;8.212;2022-07-22T10:43:29;5.30;;;1.90;;
71629;SDS011;59479;51.902;8.212;2022-07-22T10:46:02;5.60;;;1.98;;
71629;SDS011;59479;51.902;8.212;2022-07-22T10:51:19;3.70;;;1.50;;
71629;SDS011;59479;51.902;8.212;2022-07-22T10:54:08;4.15;;;1.70;;
71629;SDS011;59479;51.902;8.212;2022-07-22T10:56:50;3.42;;;1.80;;
71629;SDS011;59479;51.902;8.212;2022-07-22T10:59:26;4.20;;;1.90;;
71629;SDS011;59479;51.902;8.212;2022-07-22T11:02:09;3.72;;;1.80;;
71629;SDS011;59479;51.902;8.212;2022-07-22T11:04:49;5.17;;;1.80;;
71629;SDS011;59479;51.902;8.212;2022-07-22T11:07:23;6.68;;;2.15;;
71629;SDS011;59479;51.902;8.212;2022-07-22T11:12:53;5.20;;;1.77;;
71629;SDS011;59479;51.902;8.212;2022-07-22T11:15:41;5.05;;;1.95;;
71629;SDS011;59479;51.902;8.212;2022-07-22T11:18:57;6.93;;;2.30;;
71629;SDS011;59479;51.902;8.212;2022-07-22T11:21:28;8.73;;;2.00;;
71629;SDS011;59479;51.902;8.212;2022-07-22T11:24:02;4.43;;;1.90;;
71629;SDS011;59479;51.902;8.212;2022-07-22T11:26:40;6.68;;;2.00;;
71629;SDS011;59479;51.902;8.212;2022-07-22T11:32:46;5.43;;;1.70;;
71629;SDS011;59479;51.902;8.212;2022-07-22T11:38:09;4.63;;;2.25;;
71629;SDS011;59479;51.902;8.212;2022-07-22T11:40:40;5.68;;;2.13;;
71629;SDS011;59479;51.902;8.212;2022-07-22T11:43:36;4.80;;;2.15;;
71629;SDS011;59479;51.902;8.212;2022-07-22T11:46:44;6.60;;;2.20;;
71629;SDS011;59479;51.902;8.212;2022-07-22T11:49:22;5.35;;;1.73;;
71629;SDS011;59479;51.902;8.212;2022-07-22T11:52:08;6.22;;;2.22;;
71629;SDS011;59479;51.902;8.212;2022-07-22T11:55:15;5.00;;;2.13;;
71629;SDS011;59479;51.902;8.212;2022-07-22T11:57:47;6.05;;;2.35;;
71629;SDS011;59479;51.902;8.212;2022-07-22T12:00:52;7.63;;;2.73;;
71629;SDS011;59479;51.902;8.212;2022-07-22T12:07:27;5.50;;;2.05;;
71629;SDS011;59479;51.902;8.212;2022-07-22T12:13:35;5.60;;;2.22;;
71629;SDS011;59479;51.902;8.212;2022-07-22T12:19:32;5.53;;;2.50;;
71629;SDS011;59479;51.902;8.212;2022-07-22T12:22:28;5.97;;;2.72;;
71629;SDS011;59479;51.902;8.212;2022-07-22T12:25:15;6.78;;;2.83;;
71629;SDS011;59479;51.902;8.212;2022-07-22T12:28:00;7.70;;;2.80;;
71629;SDS011;59479;51.902;8.212;2022-07-22T12:31:17;7.37;;;2.73;;
71629;SDS011;59479;51.902;8.212;2022-07-22T12:34:11;7.97;;;2.53;;
71629;SDS011;59479;51.902;8.212;2022-07-22T12:37:20;6.43;;;2.40;;
71629;SDS011;59479;51.902;8.212;2022-07-22T12:40:36;6.53;;;2.60;;
71629;SDS011;59479;51.902;8.212;2022-07-22T12:48:59;6.90;;;2.35;;
71629;SDS011;59479;51.902;8.212;2022-07-22T12:51:25;9.32;;;2.92;;
71629;SDS011;59479;51.902;8.212;2022-07-22T12:53:51;8.27;;;2.60;;
71629;SDS011;59479;51.902;8.212;2022-07-22T12:56:16;11.53;;;3.17;;
71629;SDS011;59479;51.902;8.212;2022-07-22T12:58:45;7.07;;;2.28;;
71629;SDS011;59479;51.902;8.212;2022-07-22T13:01:10;6.43;;;2.63;;
71629;SDS011;59479;51.902;8.212;2022-07-22T13:03:35;6.80;;;2.90;;
71629;SDS011;59479;51.902;8.212;2022-07-22T13:06:02;4.57;;;2.60;;
71629;SDS011;59479;51.902;8.212;2022-07-22T13:08:29;10.00;;;3.10;;
71629;SDS011;59479;51.902;8.212;2022-07-22T13:10:54;5.90;;;2.95;;
71629;SDS011;59479;51.902;8.212;2022-07-22T13:13:20;6.80;;;2.47;;
71629;SDS011;59479;51.902;8.212;2022-07-22T13:15:47;7.30;;;2.92;;
71629;SDS011;59479;51.902;8.212;2022-07-22T13:18:13;6.70;;;2.85;;
71629;SDS011;59479;51.902;8.212;2022-07-22T13:20:39;6.70;;;2.97;;
71629;SDS011;59479;51.902;8.212;2022-07-22T13:23:04;7.85;;;3.15;;
71629;SDS011;59479;51.902;8.212;2022-07-22T13:25:30;6.10;;;3.07;;
71629;SDS011;59479;51.902;8.212;2022-07-22T13:27:57;6.93;;;3.50;;
71629;SDS011;59479;51.902;8.212;2022-07-22T13:30:23;9.15;;;4.13;;
71629;SDS011;59479;51.902;8.212;2022-07-22T13:32:49;7.60;;;3.83;;
71629;SDS011;59479;51.902;8.212;2022-07-22T13:35:15;7.18;;;3.42;;
71629;SDS011;59479;51.902;8.212;2022-07-22T13:37:41;5.63;;;3.40;;
71629;SDS011;59479;51.902;8.212;2022-07-22T13:40:06;5.72;;;3.42;;
71629;SDS011;59479;51.902;8.212;2022-07-22T13:42:32;6.37;;;3.17;;
71629;SDS011;59479;51.902;8.212;2022-07-22T13:44:58;6.47;;;2.92;;
71629;SDS011;59479;51.902;8.212;2022-07-22T13:47:23;5.63;;;3.20;;
71629;SDS011;59479;51.902;8.212;2022-07-22T13:49:49;7.67;;;3.23;;
71629;SDS011;59479;51.902;8.212;2022-07-22T13:52:14;6.73;;;3.40;;
71629;SDS011;59479;51.902;8.212;2022-07-22T13:54:40;5.82;;;3.00;;
71629;SDS011;59479;51.902;8.212;2022-07-22T13:57:05;6.90;;;3.33;;
71629;SDS011;59479;51.902;8.212;2022-07-22T13:59:31;6.67;;;3.60;;
71629;SDS011;59479;51.902;8.212;2022-07-22T14:01:57;5.95;;;3.28;;
71629;SDS011;59479;51.902;8.212;2022-07-22T14:04:23;6.07;;;3.45;;
71629;SDS011;59479;51.902;8.212;2022-07-22T14:06:49;6.63;;;3.58;;
71629;SDS011;59479;51.902;8.212;2022-07-22T14:09:15;7.13;;;3.57;;
71629;SDS011;59479;51.902;8.212;2022-07-22T14:11:40;8.53;;;3.20;;
71629;SDS011;59479;51.902;8.212;2022-07-22T14:14:05;5.50;;;3.30;;
71629;SDS011;59479;51.902;8.212;2022-07-22T14:16:31;6.20;;;3.15;;
71629;SDS011;59479;51.902;8.212;2022-07-22T14:19:01;6.13;;;3.00;;
71629;SDS011;59479;51.902;8.212;2022-07-22T14:21:32;9.82;;;3.17;;
71629;SDS011;59479;51.902;8.212;2022-07-22T14:23:58;5.55;;;2.67;;
71629;SDS011;59479;51.902;8.212;2022-07-22T14:26:24;5.50;;;2.88;;
71629;SDS011;59479;51.902;8.212;2022-07-22T14:28:49;4.73;;;2.60;;
71629;SDS011;59479;51.902;8.212;2022-07-22T14:31:14;7.57;;;2.60;;
71629;SDS011;59479;51.902;8.212;2022-07-22T14:33:40;6.45;;;2.75;;
71629;SDS011;59479;51.902;8.212;2022-07-22T14:36:06;6.22;;;3.08;;
71629;SDS011;59479;51.902;8.212;2022-07-22T14:38:31;8.10;;;3.27;;
71629;SDS011;59479;51.902;8.212;2022-07-22T14:40:57;5.80;;;2.65;;
71629;SDS011;59479;51.902;8.212;2022-07-22T14:43:22;6.53;;;3.10;;
71629;SDS011;59479;51.902;8.212;2022-07-22T14:45:48;7.23;;;3.53;;
71629;SDS011;59479;51.902;8.212;2022-07-22T14:48:13;5.63;;;2.83;;
71629;SDS011;59479;51.902;8.212;2022-07-22T14:50:39;9.43;;;3.20;;
71629;SDS011;59479;51.902;8.212;2022-07-22T14:53:04;6.77;;;2.97;;
71629;SDS011;59479;51.902;8.212;2022-07-22T14:55:30;6.47;;;2.90;;
71629;SDS011;59479;51.902;8.212;2022-07-22T14:57:55;8.73;;;3.17;;
71629;SDS011;59479;51.902;8.212;2022-07-22T15:00:20;5.20;;;2.57;;
71629;SDS011;59479;51.902;8.212;2022-07-22T15:02:46;5.10;;;2.55;;
71629;SDS011;59479;51.902;8.212;2022-07-22T15:05:11;6.35;;;3.22;;
71629;SDS011;59479;51.902;8.212;2022-07-22T15:07:37;5.23;;;2.90;;
71629;SDS011;59479;51.902;8.212;2022-07-22T15:10:02;6.70;;;3.00;;
71629;SDS011;59479;51.902;8.212;2022-07-22T15:12:28;5.50;;;3.03;;
71629;SDS011;59479;51.902;8.212;2022-07-22T15:14:53;6.07;;;2.70;;
71629;SDS011;59479;51.902;8.212;2022-07-22T15:17:19;5.50;;;2.57;;
71629;SDS011;59479;51.902;8.212;2022-07-22T15:19:44;5.33;;;3.00;;
71629;SDS011;59479;51.902;8.212;2022-07-22T15:22:09;5.25;;;2.72;;
71629;SDS011;59479;51.902;8.212;2022-07-22T15:24:35;4.72;;;2.33;;
71629;SDS011;59479;51.902;8.212;2022-07-22T15:27:00;7.70;;;2.93;;
71629;SDS011;59479;51.902;8.212;2022-07-22T15:29:25;8.73;;;2.90;;
71629;SDS011;59479;51.902;8.212;2022-07-22T15:31:51;6.10;;;2.80;;
71629;SDS011;59479;51.902;8.212;2022-07-22T15:34:16;6.23;;;2.80;;
71629;SDS011;59479;51.902;8.212;2022-07-22T15:36:42;8.53;;;3.17;;
71629;SDS011;59479;51.902;8.212;2022-07-22T15:39:07;5.27;;;3.17;;
71629;SDS011;59479;51.902;8.212;2022-07-22T15:41:32;6.72;;;3.40;;
71629;SDS011;59479;51.902;8.212;2022-07-22T15:44:01;7.37;;;2.93;;
71629;SDS011;59479;51.902;8.212;2022-07-22T15:46:29;6.60;;;2.80;;
71629;SDS011;59479;51.902;8.212;2022-07-22T15:48:54;7.23;;;3.13;;
71629;SDS011;59479;51.902;8.212;2022-07-22T15:51:20;6.47;;;2.77;;
71629;SDS011;59479;51.902;8.212;2022-07-22T15:53:45;6.65;;;2.78;;
71629;SDS011;59479;51.902;8.212;2022-07-22T15:56:10;6.97;;;2.90;;
71629;SDS011;59479;51.902;8.212;2022-07-22T15:58:36;7.97;;;2.47;;
71629;SDS011;59479;51.902;8.212;2022-07-22T16:01:19;6.50;;;3.13;;
71629;SDS011;59479;51.902;8.212;2022-07-22T16:03:45;9.53;;;3.20;;
71629;SDS011;59479;51.902;8.212;2022-07-22T16:06:11;5.90;;;3.13;;